Gaz Venture — 3FLQ4 — position and weather

sailwx.info

Track history (hours):
 
Tides and Currents Weather Stations Pressure Air Temp Water Temp Dewpoint Dewpoint Depression Visibility Wind Speed Wind Dir Waves Ship Positions

Gaz Venture

Last reported at 2016-Feb-07 00:33 UTC. Time now 2016-Feb-09 22:25 UTC.
Position N 35°57' W 005°39'.

Length 120 m; draft 7.4 m.

Type: Ship (hazmat cat D). MMSI: 356141000.

Date/timePositionNaut miles runAvg speedWind from/ knotsBaromVisibWave heightAir tempDewpointWater temp
2016-Feb-07 00:33N 35°57' W 005°39'1312.8
2016-Feb-06 23:33N 35°60' W 005°24'1312.4
2016-Feb-06 22:33N 36°03' W 005°09'38414.1
2016-Feb-05 19:26N 37°18' E 002°40'29414.1
2016-Feb-04 22:33N 38°37' E 008°39'1813.6
2016-Feb-04 21:16N 38°42' E 009°00'912.9
2016-Feb-04 20:33N 38°51' E 009°05'1413.7
2016-Feb-04 19:33N 39°05' E 009°03'0 0.2
2016-Feb-04 18:32N 39°04' E 009°03'1 1.1
2016-Feb-04 17:32N 39°05' E 009°02'0 0.0
2016-Feb-04 16:32N 39°05' E 009°02'0 0.0
2016-Feb-04 15:32N 39°05' E 009°02'0 0.0
2016-Feb-04 14:32N 39°05' E 009°02'0 0.0
2016-Feb-04 13:32N 39°05' E 009°02'0 0.0
2016-Feb-04 12:32N 39°05' E 009°02'0 0.0
2016-Feb-04 11:32N 39°05' E 009°02'0 0.0
2016-Feb-04 10:32N 39°05' E 009°02'0 0.0
2016-Feb-04 09:29N 39°05' E 009°02'0 0.0
2016-Feb-04 08:32N 39°05' E 009°02'0 0.0
2016-Feb-04 07:32N 39°05' E 009°02'0 0.0
2016-Feb-04 06:32N 39°05' E 009°02'0 0.0
2016-Feb-04 05:32N 39°05' E 009°02'0 0.0
2016-Feb-04 04:32N 39°05' E 009°02'0 0.0
2016-Feb-04 03:29N 39°05' E 009°02'0 0.0
2016-Feb-04 02:32N 39°05' E 009°02'0 0.0
2016-Feb-04 01:32N 39°05' E 009°02'0 0.0
2016-Feb-04 00:32N 39°05' E 009°02'0 0.0
2016-Feb-03 23:32N 39°05' E 009°02'0 0.0
2016-Feb-03 22:32N 39°05' E 009°02'0 0.0
2016-Feb-03 21:32N 39°05' E 009°02'0 0.0
2016-Feb-03 20:32N 39°05' E 009°02'0 0.0
2016-Feb-03 19:32N 39°05' E 009°02'0 0.0
2016-Feb-03 18:32N 39°05' E 009°02'0 0.0
2016-Feb-03 17:29N 39°05' E 009°02'0 0.0
2016-Feb-03 16:32N 39°05' E 009°02'0 0.0
2016-Feb-03 15:32N 39°05' E 009°02'0 0.0
2016-Feb-03 14:32N 39°05' E 009°02'0 0.0
2016-Feb-03 13:32N 39°05' E 009°02'0 0.0
2016-Feb-03 12:32N 39°05' E 009°02'0 0.0
2016-Feb-03 11:32N 39°05' E 009°02'0 0.0
2016-Feb-03 10:32N 39°05' E 009°02'0 0.0
2016-Feb-03 09:32N 39°05' E 009°02'0 0.0
2016-Feb-03 08:32N 39°05' E 009°02'0 0.0
2016-Feb-03 07:32N 39°05' E 009°02'0 0.0
2016-Feb-03 06:32N 39°05' E 009°02'0 0.0
2016-Feb-03 05:32N 39°05' E 009°02'0 0.0
2016-Feb-03 04:32N 39°05' E 009°02'0 0.0
2016-Feb-03 03:32N 39°05' E 009°02'0 0.0
2016-Feb-03 02:32N 39°05' E 009°02'0 0.0
2016-Feb-03 01:32N 39°05' E 009°02'0 0.0
2016-Feb-03 00:32N 39°05' E 009°02'0 0.0
2016-Feb-02 23:33N 39°05' E 009°02'2 1.6
2016-Feb-02 22:33N 39°04' E 009°04'0 0.0
2016-Feb-02 21:31N 39°04' E 009°04'0 0.0
2016-Feb-02 20:31N 39°04' E 009°04'0 0.0
2016-Feb-02 19:31N 39°04' E 009°04'0 0.0
2016-Feb-02 18:28N 39°04' E 009°04'0 0.1
2016-Feb-02 17:31N 39°04' E 009°04'0 0.1
2016-Feb-02 16:28N 39°04' E 009°04'0 0.0
2016-Feb-02 15:28N 39°04' E 009°04'0 0.1
2016-Feb-02 14:31N 39°04' E 009°03'0 0.1
2016-Feb-02 13:31N 39°04' E 009°03'0 0.0
2016-Feb-02 12:31N 39°04' E 009°03'0 0.0
2016-Feb-02 11:31N 39°04' E 009°04'0 0.0
2016-Feb-02 10:31N 39°04' E 009°04'8 8.5
2016-Feb-02 09:33N 39°01' E 009°14'1514.6
2016-Feb-02 08:33N 38°58' E 009°32'12615.1
2016-Feb-02 00:14N 38°52' E 012°13'1014.9
2016-Feb-01 23:33N 38°51' E 012°26'1514.8
2016-Feb-01 22:31N 38°51' E 012°46'1515.0
2016-Feb-01 21:32N 38°50' E 013°05'1514.8
2016-Feb-01 20:33N 38°49' E 013°23'1515.0
2016-Feb-01 19:33N 38°49' E 013°43'1715.0
2016-Feb-01 18:26N 38°48' E 014°04'5814.0
2016-Feb-01 14:18N 38°37' E 015°17'1214.9
2016-Feb-01 13:30N 38°29' E 015°28'1414.7
2016-Feb-01 12:32N 38°19' E 015°41'1211.8
2016-Feb-01 11:33N 38°08' E 015°36'1413.6
2016-Feb-01 10:32N 37°54' E 015°40'  
2016-Jan-29 00:28N 36°05' E 015°38'1314.4
2016-Jan-28 23:33N 35°54' E 015°29'1414.1
2016-Jan-28 22:33N 35°42' E 015°20'1414.2
2016-Jan-28 21:33N 35°30' E 015°11'10 9.3
2016-Jan-28 20:28N 35°22' E 015°03'1 0.8
2016-Jan-28 19:30N 35°23' E 015°02'1 0.9
2016-Jan-28 18:33N 35°24' E 015°02'1 0.6
2016-Jan-28 17:31N 35°24' E 015°02'5 4.7
2016-Jan-28 16:28N 35°26' E 014°56'1514.4
2016-Jan-28 15:28N 35°17' E 014°42'1715.4
2016-Jan-28 14:21N 35°04' E 014°29'1215.3
2016-Jan-28 13:33N 34°55' E 014°18'  
Track history (hours):
 
Tides and Currents Weather Stations Pressure Air Temp Water Temp Dewpoint Dewpoint Depression Visibility Wind Speed Wind Dir Waves Ship Positions

Gaz Venture

Last reported at 2016-Feb-07 00:33 UTC. Time now 2016-Feb-09 22:25 UTC.
Position N 35°57' W 005°39'.

Length 120 m; draft 7.4 m.

Type: Ship (hazmat cat D). MMSI: 356141000.

Date/timePositionNaut miles runAvg speedWind from/ knotsBaromVisibWave heightAir tempDewpointWater temp
2016-Feb-07 00:33N 35°57' W 005°39'1312.8
2016-Feb-06 23:33N 35°60' W 005°24'1312.4
2016-Feb-06 22:33N 36°03' W 005°09'38414.1
2016-Feb-05 19:26N 37°18' E 002°40'29414.1
2016-Feb-04 22:33N 38°37' E 008°39'1813.6
2016-Feb-04 21:16N 38°42' E 009°00'912.9
2016-Feb-04 20:33N 38°51' E 009°05'1413.7
2016-Feb-04 19:33N 39°05' E 009°03'0 0.2
2016-Feb-04 18:32N 39°04' E 009°03'1 1.1
2016-Feb-04 17:32N 39°05' E 009°02'0 0.0
2016-Feb-04 16:32N 39°05' E 009°02'0 0.0
2016-Feb-04 15:32N 39°05' E 009°02'0 0.0
2016-Feb-04 14:32N 39°05' E 009°02'0 0.0
2016-Feb-04 13:32N 39°05' E 009°02'0 0.0
2016-Feb-04 12:32N 39°05' E 009°02'0 0.0
2016-Feb-04 11:32N 39°05' E 009°02'0 0.0
2016-Feb-04 10:32N 39°05' E 009°02'0 0.0
2016-Feb-04 09:29N 39°05' E 009°02'0 0.0
2016-Feb-04 08:32N 39°05' E 009°02'0 0.0
2016-Feb-04 07:32N 39°05' E 009°02'0 0.0
2016-Feb-04 06:32N 39°05' E 009°02'0 0.0
2016-Feb-04 05:32N 39°05' E 009°02'0 0.0
2016-Feb-04 04:32N 39°05' E 009°02'0 0.0
2016-Feb-04 03:29N 39°05' E 009°02'0 0.0
2016-Feb-04 02:32N 39°05' E 009°02'0 0.0
2016-Feb-04 01:32N 39°05' E 009°02'0 0.0
2016-Feb-04 00:32N 39°05' E 009°02'0 0.0
2016-Feb-03 23:32N 39°05' E 009°02'0 0.0
2016-Feb-03 22:32N 39°05' E 009°02'0 0.0
2016-Feb-03 21:32N 39°05' E 009°02'0 0.0
2016-Feb-03 20:32N 39°05' E 009°02'0 0.0
2016-Feb-03 19:32N 39°05' E 009°02'0 0.0
2016-Feb-03 18:32N 39°05' E 009°02'0 0.0
2016-Feb-03 17:29N 39°05' E 009°02'0 0.0
2016-Feb-03 16:32N 39°05' E 009°02'0 0.0
2016-Feb-03 15:32N 39°05' E 009°02'0 0.0
2016-Feb-03 14:32N 39°05' E 009°02'0 0.0
2016-Feb-03 13:32N 39°05' E 009°02'0 0.0
2016-Feb-03 12:32N 39°05' E 009°02'0 0.0
2016-Feb-03 11:32N 39°05' E 009°02'0 0.0
2016-Feb-03 10:32N 39°05' E 009°02'0 0.0
2016-Feb-03 09:32N 39°05' E 009°02'0 0.0
2016-Feb-03 08:32N 39°05' E 009°02'0 0.0
2016-Feb-03 07:32N 39°05' E 009°02'0 0.0
2016-Feb-03 06:32N 39°05' E 009°02'0 0.0
2016-Feb-03 05:32N 39°05' E 009°02'0 0.0
2016-Feb-03 04:32N 39°05' E 009°02'0 0.0
2016-Feb-03 03:32N 39°05' E 009°02'0 0.0
2016-Feb-03 02:32N 39°05' E 009°02'0 0.0
2016-Feb-03 01:32N 39°05' E 009°02'0 0.0
2016-Feb-03 00:32N 39°05' E 009°02'0 0.0
2016-Feb-02 23:33N 39°05' E 009°02'2 1.6
2016-Feb-02 22:33N 39°04' E 009°04'0 0.0
2016-Feb-02 21:31N 39°04' E 009°04'0 0.0
2016-Feb-02 20:31N 39°04' E 009°04'0 0.0
2016-Feb-02 19:31N 39°04' E 009°04'0 0.0
2016-Feb-02 18:28N 39°04' E 009°04'0 0.1
2016-Feb-02 17:31N 39°04' E 009°04'0 0.1
2016-Feb-02 16:28N 39°04' E 009°04'0 0.0
2016-Feb-02 15:28N 39°04' E 009°04'0 0.1
2016-Feb-02 14:31N 39°04' E 009°03'0 0.1
2016-Feb-02 13:31N 39°04' E 009°03'0 0.0
2016-Feb-02 12:31N 39°04' E 009°03'0 0.0
2016-Feb-02 11:31N 39°04' E 009°04'0 0.0
2016-Feb-02 10:31N 39°04' E 009°04'8 8.5
2016-Feb-02 09:33N 39°01' E 009°14'1514.6
2016-Feb-02 08:33N 38°58' E 009°32'12615.1
2016-Feb-02 00:14N 38°52' E 012°13'1014.9
2016-Feb-01 23:33N 38°51' E 012°26'1514.8
2016-Feb-01 22:31N 38°51' E 012°46'1515.0
2016-Feb-01 21:32N 38°50' E 013°05'1514.8
2016-Feb-01 20:33N 38°49' E 013°23'1515.0
2016-Feb-01 19:33N 38°49' E 013°43'1715.0
2016-Feb-01 18:26N 38°48' E 014°04'5814.0
2016-Feb-01 14:18N 38°37' E 015°17'1214.9
2016-Feb-01 13:30N 38°29' E 015°28'1414.7
2016-Feb-01 12:32N 38°19' E 015°41'1211.8
2016-Feb-01 11:33N 38°08' E 015°36'1413.6
2016-Feb-01 10:32N 37°54' E 015°40'  
2016-Jan-29 00:28N 36°05' E 015°38'1314.4
2016-Jan-28 23:33N 35°54' E 015°29'1414.1
2016-Jan-28 22:33N 35°42' E 015°20'1414.2
2016-Jan-28 21:33N 35°30' E 015°11'10 9.3
2016-Jan-28 20:28N 35°22' E 015°03'1 0.8
2016-Jan-28 19:30N 35°23' E 015°02'1 0.9
2016-Jan-28 18:33N 35°24' E 015°02'1 0.6
2016-Jan-28 17:31N 35°24' E 015°02'5 4.7
2016-Jan-28 16:28N 35°26' E 014°56'1514.4
2016-Jan-28 15:28N 35°17' E 014°42'1715.4
2016-Jan-28 14:21N 35°04' E 014°29'1215.3
2016-Jan-28 13:33N 34°55' E 014°18'  

Dump ship's entire track history